sensor_id;sensor_type;location;lat;lon;timestamp;P1;durP1;ratioP1;P2;durP2;ratioP2
37459;SDS011;23318;50.966;5.284;2023-03-01T00:00:40;14.55;;;6.65;;
37459;SDS011;23318;50.966;5.284;2023-03-01T00:03:06;9.98;;;6.68;;
37459;SDS011;23318;50.966;5.284;2023-03-01T00:05:31;11.77;;;6.75;;
37459;SDS011;23318;50.966;5.284;2023-03-01T00:07:57;9.57;;;6.60;;
37459;SDS011;23318;50.966;5.284;2023-03-01T00:10:23;8.77;;;6.53;;
37459;SDS011;23318;50.966;5.284;2023-03-01T00:12:49;12.23;;;6.90;;
37459;SDS011;23318;50.966;5.284;2023-03-01T00:15:15;12.48;;;7.40;;
37459;SDS011;23318;50.966;5.284;2023-03-01T00:17:40;9.50;;;6.53;;
37459;SDS011;23318;50.966;5.284;2023-03-01T00:20:06;12.93;;;7.57;;
37459;SDS011;23318;50.966;5.284;2023-03-01T00:22:35;13.32;;;7.20;;
37459;SDS011;23318;50.966;5.284;2023-03-01T00:25:02;11.95;;;6.85;;
37459;SDS011;23318;50.966;5.284;2023-03-01T00:27:28;12.90;;;6.68;;
37459;SDS011;23318;50.966;5.284;2023-03-01T00:29:54;13.23;;;6.80;;
37459;SDS011;23318;50.966;5.284;2023-03-01T00:32:19;9.80;;;6.85;;
37459;SDS011;23318;50.966;5.284;2023-03-01T00:34:45;9.27;;;6.05;;
37459;SDS011;23318;50.966;5.284;2023-03-01T00:39:45;15.13;;;6.97;;
37459;SDS011;23318;50.966;5.284;2023-03-01T00:42:11;12.43;;;7.25;;
37459;SDS011;23318;50.966;5.284;2023-03-01T00:44:37;12.80;;;6.70;;
37459;SDS011;23318;50.966;5.284;2023-03-01T00:47:02;11.50;;;6.85;;
37459;SDS011;23318;50.966;5.284;2023-03-01T00:49:28;8.57;;;6.50;;
37459;SDS011;23318;50.966;5.284;2023-03-01T00:51:54;8.65;;;6.38;;
37459;SDS011;23318;50.966;5.284;2023-03-01T00:54:19;11.88;;;7.35;;
37459;SDS011;23318;50.966;5.284;2023-03-01T00:56:45;9.52;;;6.30;;
37459;SDS011;23318;50.966;5.284;2023-03-01T00:59:11;13.65;;;7.18;;
37459;SDS011;23318;50.966;5.284;2023-03-01T01:01:36;12.90;;;6.40;;
37459;SDS011;23318;50.966;5.284;2023-03-01T01:04:04;9.85;;;6.45;;
37459;SDS011;23318;50.966;5.284;2023-03-01T01:06:36;10.48;;;6.63;;
37459;SDS011;23318;50.966;5.284;2023-03-01T01:09:05;8.30;;;6.35;;
37459;SDS011;23318;50.966;5.284;2023-03-01T01:11:32;10.25;;;6.70;;
37459;SDS011;23318;50.966;5.284;2023-03-01T01:14:00;11.65;;;6.80;;
37459;SDS011;23318;50.966;5.284;2023-03-01T01:16:26;12.55;;;6.72;;
37459;SDS011;23318;50.966;5.284;2023-03-01T01:18:53;9.52;;;6.28;;
37459;SDS011;23318;50.966;5.284;2023-03-01T01:21:19;10.48;;;6.35;;
37459;SDS011;23318;50.966;5.284;2023-03-01T01:23:48;10.90;;;6.93;;
37459;SDS011;23318;50.966;5.284;2023-03-01T01:26:15;11.23;;;7.13;;
37459;SDS011;23318;50.966;5.284;2023-03-01T01:28:43;12.23;;;7.38;;
37459;SDS011;23318;50.966;5.284;2023-03-01T01:31:08;12.15;;;6.47;;
37459;SDS011;23318;50.966;5.284;2023-03-01T01:33:34;13.95;;;6.78;;
37459;SDS011;23318;50.966;5.284;2023-03-01T01:36:00;13.23;;;6.88;;
37459;SDS011;23318;50.966;5.284;2023-03-01T01:38:26;10.63;;;6.95;;
37459;SDS011;23318;50.966;5.284;2023-03-01T01:40:52;14.25;;;6.90;;
37459;SDS011;23318;50.966;5.284;2023-03-01T01:43:19;12.50;;;7.30;;
37459;SDS011;23318;50.966;5.284;2023-03-01T01:45:48;9.30;;;6.57;;
37459;SDS011;23318;50.966;5.284;2023-03-01T01:48:16;9.85;;;6.57;;
37459;SDS011;23318;50.966;5.284;2023-03-01T01:50:49;10.38;;;7.25;;
37459;SDS011;23318;50.966;5.284;2023-03-01T01:53:21;13.52;;;7.35;;
37459;SDS011;23318;50.966;5.284;2023-03-01T01:55:51;10.38;;;6.65;;
37459;SDS011;23318;50.966;5.284;2023-03-01T01:58:22;13.13;;;7.15;;
37459;SDS011;23318;50.966;5.284;2023-03-01T02:00:51;11.18;;;6.80;;
37459;SDS011;23318;50.966;5.284;2023-03-01T02:03:19;10.90;;;6.97;;
37459;SDS011;23318;50.966;5.284;2023-03-01T02:08:46;12.32;;;7.28;;
37459;SDS011;23318;50.966;5.284;2023-03-01T02:11:14;10.30;;;7.10;;
37459;SDS011;23318;50.966;5.284;2023-03-01T02:13:41;10.68;;;6.60;;
37459;SDS011;23318;50.966;5.284;2023-03-01T02:16:11;10.15;;;6.35;;
37459;SDS011;23318;50.966;5.284;2023-03-01T02:18:39;13.93;;;7.05;;
37459;SDS011;23318;50.966;5.284;2023-03-01T02:23:31;10.88;;;7.43;;
37459;SDS011;23318;50.966;5.284;2023-03-01T02:26:03;8.65;;;7.00;;
37459;SDS011;23318;50.966;5.284;2023-03-01T02:28:40;9.70;;;6.88;;
37459;SDS011;23318;50.966;5.284;2023-03-01T02:31:08;11.43;;;7.65;;
37459;SDS011;23318;50.966;5.284;2023-03-01T02:33:54;12.85;;;7.25;;
37459;SDS011;23318;50.966;5.284;2023-03-01T02:36:22;11.52;;;7.35;;
37459;SDS011;23318;50.966;5.284;2023-03-01T02:38:56;14.73;;;8.05;;
37459;SDS011;23318;50.966;5.284;2023-03-01T02:41:24;13.82;;;7.45;;
37459;SDS011;23318;50.966;5.284;2023-03-01T02:43:53;13.90;;;8.02;;
37459;SDS011;23318;50.966;5.284;2023-03-01T02:46:20;12.80;;;8.23;;
37459;SDS011;23318;50.966;5.284;2023-03-01T02:48:49;11.77;;;7.60;;
37459;SDS011;23318;50.966;5.284;2023-03-01T02:54:17;12.55;;;7.72;;
37459;SDS011;23318;50.966;5.284;2023-03-01T02:56:58;10.00;;;7.13;;
37459;SDS011;23318;50.966;5.284;2023-03-01T02:59:26;16.98;;;7.82;;
37459;SDS011;23318;50.966;5.284;2023-03-01T03:01:56;11.50;;;7.55;;
37459;SDS011;23318;50.966;5.284;2023-03-01T03:04:21;15.38;;;8.38;;
37459;SDS011;23318;50.966;5.284;2023-03-01T03:06:48;13.65;;;7.80;;
37459;SDS011;23318;50.966;5.284;2023-03-01T03:09:15;11.15;;;8.18;;
37459;SDS011;23318;50.966;5.284;2023-03-01T03:11:42;12.35;;;7.93;;
37459;SDS011;23318;50.966;5.284;2023-03-01T03:14:12;13.13;;;8.43;;
37459;SDS011;23318;50.966;5.284;2023-03-01T03:16:43;13.57;;;7.88;;
37459;SDS011;23318;50.966;5.284;2023-03-01T03:19:13;11.32;;;7.70;;
37459;SDS011;23318;50.966;5.284;2023-03-01T03:21:39;12.25;;;8.13;;
37459;SDS011;23318;50.966;5.284;2023-03-01T03:24:05;10.55;;;7.35;;
37459;SDS011;23318;50.966;5.284;2023-03-01T03:26:31;12.48;;;8.05;;
37459;SDS011;23318;50.966;5.284;2023-03-01T03:28:57;11.95;;;7.95;;
37459;SDS011;23318;50.966;5.284;2023-03-01T03:31:22;11.70;;;7.75;;
37459;SDS011;23318;50.966;5.284;2023-03-01T03:33:48;13.30;;;8.55;;
37459;SDS011;23318;50.966;5.284;2023-03-01T03:36:21;14.75;;;9.32;;
37459;SDS011;23318;50.966;5.284;2023-03-01T03:38:49;10.95;;;8.48;;
37459;SDS011;23318;50.966;5.284;2023-03-01T03:41:15;13.63;;;8.98;;
37459;SDS011;23318;50.966;5.284;2023-03-01T03:43:42;14.30;;;9.00;;
37459;SDS011;23318;50.966;5.284;2023-03-01T03:46:08;15.18;;;8.45;;
37459;SDS011;23318;50.966;5.284;2023-03-01T03:48:42;13.68;;;8.88;;
37459;SDS011;23318;50.966;5.284;2023-03-01T03:51:18;19.80;;;9.25;;
37459;SDS011;23318;50.966;5.284;2023-03-01T03:53:44;15.73;;;8.32;;
37459;SDS011;23318;50.966;5.284;2023-03-01T03:56:11;14.75;;;9.15;;
37459;SDS011;23318;50.966;5.284;2023-03-01T03:58:37;12.82;;;9.20;;
37459;SDS011;23318;50.966;5.284;2023-03-01T04:01:03;17.80;;;9.95;;
37459;SDS011;23318;50.966;5.284;2023-03-01T04:03:29;13.27;;;9.02;;
37459;SDS011;23318;50.966;5.284;2023-03-01T04:05:57;15.30;;;9.57;;
37459;SDS011;23318;50.966;5.284;2023-03-01T04:08:24;12.95;;;8.75;;
37459;SDS011;23318;50.966;5.284;2023-03-01T04:10:51;19.25;;;10.45;;
37459;SDS011;23318;50.966;5.284;2023-03-01T04:13:19;16.63;;;10.13;;
37459;SDS011;23318;50.966;5.284;2023-03-01T04:15:50;14.52;;;10.07;;
37459;SDS011;23318;50.966;5.284;2023-03-01T04:18:17;16.95;;;10.07;;
37459;SDS011;23318;50.966;5.284;2023-03-01T04:20:44;14.63;;;9.85;;
37459;SDS011;23318;50.966;5.284;2023-03-01T04:23:15;14.88;;;9.80;;
37459;SDS011;23318;50.966;5.284;2023-03-01T04:25:45;17.40;;;10.32;;
37459;SDS011;23318;50.966;5.284;2023-03-01T04:30:50;14.50;;;10.32;;
37459;SDS011;23318;50.966;5.284;2023-03-01T04:33:17;14.63;;;9.93;;
37459;SDS011;23318;50.966;5.284;2023-03-01T04:35:43;15.70;;;9.57;;
37459;SDS011;23318;50.966;5.284;2023-03-01T04:38:09;16.45;;;9.30;;
37459;SDS011;23318;50.966;5.284;2023-03-01T04:40:35;19.80;;;9.77;;
37459;SDS011;23318;50.966;5.284;2023-03-01T04:43:01;17.02;;;9.90;;
37459;SDS011;23318;50.966;5.284;2023-03-01T04:45:28;12.48;;;9.15;;
37459;SDS011;23318;50.966;5.284;2023-03-01T04:47:53;17.75;;;9.68;;
37459;SDS011;23318;50.966;5.284;2023-03-01T04:50:20;14.88;;;9.05;;
37459;SDS011;23318;50.966;5.284;2023-03-01T04:52:46;15.50;;;8.88;;
37459;SDS011;23318;50.966;5.284;2023-03-01T04:55:12;15.68;;;9.35;;
37459;SDS011;23318;50.966;5.284;2023-03-01T04:57:38;15.88;;;9.25;;
37459;SDS011;23318;50.966;5.284;2023-03-01T05:00:04;20.45;;;9.40;;
37459;SDS011;23318;50.966;5.284;2023-03-01T05:02:45;15.25;;;9.45;;
37459;SDS011;23318;50.966;5.284;2023-03-01T05:05:13;15.02;;;10.40;;
37459;SDS011;23318;50.966;5.284;2023-03-01T05:07:39;14.82;;;9.68;;
37459;SDS011;23318;50.966;5.284;2023-03-01T05:10:04;16.67;;;9.35;;
37459;SDS011;23318;50.966;5.284;2023-03-01T05:12:30;18.83;;;9.50;;
37459;SDS011;23318;50.966;5.284;2023-03-01T05:14:57;16.45;;;9.57;;
37459;SDS011;23318;50.966;5.284;2023-03-01T05:17:23;18.70;;;10.93;;
37459;SDS011;23318;50.966;5.284;2023-03-01T05:19:49;16.67;;;9.75;;
37459;SDS011;23318;50.966;5.284;2023-03-01T05:22:15;13.82;;;9.40;;
37459;SDS011;23318;50.966;5.284;2023-03-01T05:24:41;15.07;;;9.85;;
37459;SDS011;23318;50.966;5.284;2023-03-01T05:27:07;16.40;;;9.65;;
37459;SDS011;23318;50.966;5.284;2023-03-01T05:29:32;20.10;;;10.10;;
37459;SDS011;23318;50.966;5.284;2023-03-01T05:32:00;16.75;;;9.20;;
37459;SDS011;23318;50.966;5.284;2023-03-01T05:34:28;16.13;;;9.88;;
37459;SDS011;23318;50.966;5.284;2023-03-01T05:36:55;14.75;;;9.23;;
37459;SDS011;23318;50.966;5.284;2023-03-01T05:39:22;18.80;;;10.00;;
37459;SDS011;23318;50.966;5.284;2023-03-01T05:41:52;14.50;;;9.95;;
37459;SDS011;23318;50.966;5.284;2023-03-01T05:44:19;16.73;;;9.85;;
37459;SDS011;23318;50.966;5.284;2023-03-01T05:46:45;18.33;;;10.00;;
37459;SDS011;23318;50.966;5.284;2023-03-01T05:49:12;16.40;;;9.32;;
37459;SDS011;23318;50.966;5.284;2023-03-01T05:51:38;15.65;;;9.82;;
37459;SDS011;23318;50.966;5.284;2023-03-01T05:54:08;14.10;;;9.50;;
37459;SDS011;23318;50.966;5.284;2023-03-01T05:56:35;16.70;;;9.60;;
37459;SDS011;23318;50.966;5.284;2023-03-01T05:59:02;18.65;;;11.02;;
37459;SDS011;23318;50.966;5.284;2023-03-01T06:01:30;20.70;;;11.98;;
37459;SDS011;23318;50.966;5.284;2023-03-01T06:03:56;19.88;;;11.65;;
37459;SDS011;23318;50.966;5.284;2023-03-01T06:06:22;20.08;;;11.27;;
37459;SDS011;23318;50.966;5.284;2023-03-01T06:08:49;23.20;;;11.80;;
37459;SDS011;23318;50.966;5.284;2023-03-01T06:11:15;22.85;;;11.95;;
37459;SDS011;23318;50.966;5.284;2023-03-01T06:13:41;19.92;;;12.85;;
37459;SDS011;23318;50.966;5.284;2023-03-01T06:16:10;29.35;;;13.05;;
37459;SDS011;23318;50.966;5.284;2023-03-01T06:18:37;25.90;;;12.27;;
37459;SDS011;23318;50.966;5.284;2023-03-01T06:21:03;23.80;;;13.02;;
37459;SDS011;23318;50.966;5.284;2023-03-01T06:23:30;22.58;;;13.10;;
37459;SDS011;23318;50.966;5.284;2023-03-01T06:25:56;24.33;;;12.65;;
37459;SDS011;23318;50.966;5.284;2023-03-01T06:28:21;23.40;;;13.10;;
37459;SDS011;23318;50.966;5.284;2023-03-01T06:30:47;25.08;;;12.30;;
37459;SDS011;23318;50.966;5.284;2023-03-01T06:33:14;23.92;;;13.18;;
37459;SDS011;23318;50.966;5.284;2023-03-01T06:35:40;20.42;;;12.73;;
37459;SDS011;23318;50.966;5.284;2023-03-01T06:38:06;23.65;;;13.45;;
37459;SDS011;23318;50.966;5.284;2023-03-01T06:40:32;24.90;;;14.23;;
37459;SDS011;23318;50.966;5.284;2023-03-01T06:43:00;24.13;;;13.13;;
37459;SDS011;23318;50.966;5.284;2023-03-01T06:45:26;27.15;;;13.70;;
37459;SDS011;23318;50.966;5.284;2023-03-01T06:47:52;22.83;;;13.52;;
37459;SDS011;23318;50.966;5.284;2023-03-01T06:50:17;24.15;;;14.13;;
37459;SDS011;23318;50.966;5.284;2023-03-01T06:52:43;23.20;;;12.88;;
37459;SDS011;23318;50.966;5.284;2023-03-01T06:55:10;27.90;;;14.18;;
37459;SDS011;23318;50.966;5.284;2023-03-01T06:57:36;25.05;;;13.35;;
37459;SDS011;23318;50.966;5.284;2023-03-01T07:00:06;24.23;;;13.95;;
37459;SDS011;23318;50.966;5.284;2023-03-01T07:02:33;21.92;;;13.23;;
37459;SDS011;23318;50.966;5.284;2023-03-01T07:04:58;30.17;;;14.25;;
37459;SDS011;23318;50.966;5.284;2023-03-01T07:07:24;29.00;;;14.65;;
37459;SDS011;23318;50.966;5.284;2023-03-01T07:09:50;21.98;;;13.20;;
37459;SDS011;23318;50.966;5.284;2023-03-01T07:12:16;27.55;;;14.98;;
37459;SDS011;23318;50.966;5.284;2023-03-01T07:14:43;29.60;;;13.75;;
37459;SDS011;23318;50.966;5.284;2023-03-01T07:17:09;25.15;;;14.13;;
37459;SDS011;23318;50.966;5.284;2023-03-01T07:19:35;26.40;;;15.02;;
37459;SDS011;23318;50.966;5.284;2023-03-01T07:22:00;24.52;;;14.82;;
37459;SDS011;23318;50.966;5.284;2023-03-01T07:24:26;26.67;;;15.10;;
37459;SDS011;23318;50.966;5.284;2023-03-01T07:26:52;28.02;;;15.02;;
37459;SDS011;23318;50.966;5.284;2023-03-01T07:29:18;27.63;;;15.63;;
37459;SDS011;23318;50.966;5.284;2023-03-01T07:31:44;26.00;;;14.98;;
37459;SDS011;23318;50.966;5.284;2023-03-01T07:34:10;21.92;;;14.15;;
37459;SDS011;23318;50.966;5.284;2023-03-01T07:36:36;25.60;;;14.27;;
37459;SDS011;23318;50.966;5.284;2023-03-01T07:39:02;29.45;;;14.25;;
37459;SDS011;23318;50.966;5.284;2023-03-01T07:41:29;27.05;;;13.95;;
37459;SDS011;23318;50.966;5.284;2023-03-01T07:43:54;24.80;;;13.57;;
37459;SDS011;23318;50.966;5.284;2023-03-01T07:46:20;19.25;;;12.10;;
37459;SDS011;23318;50.966;5.284;2023-03-01T07:48:46;24.73;;;13.55;;
37459;SDS011;23318;50.966;5.284;2023-03-01T07:51:12;23.55;;;13.15;;
37459;SDS011;23318;50.966;5.284;2023-03-01T07:53:38;22.40;;;12.98;;
37459;SDS011;23318;50.966;5.284;2023-03-01T07:56:08;26.58;;;13.55;;
37459;SDS011;23318;50.966;5.284;2023-03-01T07:58:36;21.67;;;12.32;;
37459;SDS011;23318;50.966;5.284;2023-03-01T08:01:03;24.45;;;13.18;;
37459;SDS011;23318;50.966;5.284;2023-03-01T08:03:30;24.10;;;13.15;;
37459;SDS011;23318;50.966;5.284;2023-03-01T08:05:55;25.70;;;13.23;;
37459;SDS011;23318;50.966;5.284;2023-03-01T08:08:23;18.77;;;11.98;;
37459;SDS011;23318;50.966;5.284;2023-03-01T08:10:49;18.83;;;12.73;;
37459;SDS011;23318;50.966;5.284;2023-03-01T08:13:15;20.10;;;12.38;;
37459;SDS011;23318;50.966;5.284;2023-03-01T08:15:40;24.35;;;12.63;;
37459;SDS011;23318;50.966;5.284;2023-03-01T08:18:06;25.17;;;13.30;;
37459;SDS011;23318;50.966;5.284;2023-03-01T08:20:32;25.50;;;13.00;;
37459;SDS011;23318;50.966;5.284;2023-03-01T08:22:57;18.52;;;12.50;;
37459;SDS011;23318;50.966;5.284;2023-03-01T08:25:23;19.23;;;11.82;;
37459;SDS011;23318;50.966;5.284;2023-03-01T08:27:49;23.20;;;12.73;;
37459;SDS011;23318;50.966;5.284;2023-03-01T08:30:14;17.02;;;11.80;;
37459;SDS011;23318;50.966;5.284;2023-03-01T08:32:40;22.08;;;12.52;;
37459;SDS011;23318;50.966;5.284;2023-03-01T08:35:06;17.25;;;11.65;;
37459;SDS011;23318;50.966;5.284;2023-03-01T08:37:32;22.23;;;12.35;;
37459;SDS011;23318;50.966;5.284;2023-03-01T08:39:58;18.35;;;11.43;;
37459;SDS011;23318;50.966;5.284;2023-03-01T08:42:25;19.00;;;12.30;;
37459;SDS011;23318;50.966;5.284;2023-03-01T08:44:51;22.38;;;11.70;;
37459;SDS011;23318;50.966;5.284;2023-03-01T08:47:17;17.02;;;11.27;;
37459;SDS011;23318;50.966;5.284;2023-03-01T08:49:42;19.77;;;12.30;;
37459;SDS011;23318;50.966;5.284;2023-03-01T08:52:08;23.02;;;12.43;;
37459;SDS011;23318;50.966;5.284;2023-03-01T08:54:34;21.20;;;11.85;;
37459;SDS011;23318;50.966;5.284;2023-03-01T08:57:01;21.85;;;11.77;;
37459;SDS011;23318;50.966;5.284;2023-03-01T08:59:27;28.40;;;16.10;;
37459;SDS011;23318;50.966;5.284;2023-03-01T09:01:54;24.88;;;12.93;;
37459;SDS011;23318;50.966;5.284;2023-03-01T09:04:20;30.95;;;12.27;;
37459;SDS011;23318;50.966;5.284;2023-03-01T09:06:46;17.88;;;11.88;;
37459;SDS011;23318;50.966;5.284;2023-03-01T09:09:16;21.40;;;11.45;;
37459;SDS011;23318;50.966;5.284;2023-03-01T09:11:43;17.77;;;11.43;;
37459;SDS011;23318;50.966;5.284;2023-03-01T09:14:11;19.00;;;12.27;;
37459;SDS011;23318;50.966;5.284;2023-03-01T09:16:37;23.00;;;12.02;;
37459;SDS011;23318;50.966;5.284;2023-03-01T09:19:04;22.85;;;11.63;;
37459;SDS011;23318;50.966;5.284;2023-03-01T09:21:30;20.17;;;11.75;;
37459;SDS011;23318;50.966;5.284;2023-03-01T09:23:56;22.02;;;12.38;;
37459;SDS011;23318;50.966;5.284;2023-03-01T09:26:23;22.33;;;12.88;;
37459;SDS011;23318;50.966;5.284;2023-03-01T09:28:50;21.70;;;12.43;;
37459;SDS011;23318;50.966;5.284;2023-03-01T09:31:17;22.88;;;12.25;;
37459;SDS011;23318;50.966;5.284;2023-03-01T09:33:49;20.27;;;12.82;;
37459;SDS011;23318;50.966;5.284;2023-03-01T09:36:17;18.67;;;11.98;;
37459;SDS011;23318;50.966;5.284;2023-03-01T09:38:46;21.33;;;12.02;;
37459;SDS011;23318;50.966;5.284;2023-03-01T09:44:00;20.60;;;12.27;;
37459;SDS011;23318;50.966;5.284;2023-03-01T09:46:47;20.25;;;12.48;;
37459;SDS011;23318;50.966;5.284;2023-03-01T09:49:20;20.63;;;11.75;;
37459;SDS011;23318;50.966;5.284;2023-03-01T09:52:12;20.67;;;11.95;;
37459;SDS011;23318;50.966;5.284;2023-03-01T09:54:47;16.48;;;11.07;;
37459;SDS011;23318;50.966;5.284;2023-03-01T09:57:19;19.88;;;11.57;;
37459;SDS011;23318;50.966;5.284;2023-03-01T10:02:42;29.63;;;15.98;;
37459;SDS011;23318;50.966;5.284;2023-03-01T10:08:42;20.15;;;11.63;;
37459;SDS011;23318;50.966;5.284;2023-03-01T10:11:26;18.08;;;11.70;;
37459;SDS011;23318;50.966;5.284;2023-03-01T10:14:05;16.85;;;11.43;;
37459;SDS011;23318;50.966;5.284;2023-03-01T10:16:57;19.35;;;11.88;;
37459;SDS011;23318;50.966;5.284;2023-03-01T10:19:38;20.77;;;12.90;;
37459;SDS011;23318;50.966;5.284;2023-03-01T10:22:16;19.50;;;11.65;;
37459;SDS011;23318;50.966;5.284;2023-03-01T10:24:50;19.60;;;12.48;;
37459;SDS011;23318;50.966;5.284;2023-03-01T10:27:19;17.42;;;11.48;;
37459;SDS011;23318;50.966;5.284;2023-03-01T10:32:31;20.27;;;12.25;;
37459;SDS011;23318;50.966;5.284;2023-03-01T10:34:56;18.98;;;11.65;;
37459;SDS011;23318;50.966;5.284;2023-03-01T10:37:22;17.85;;;12.02;;
37459;SDS011;23318;50.966;5.284;2023-03-01T10:40:08;22.35;;;12.40;;
37459;SDS011;23318;50.966;5.284;2023-03-01T10:42:36;17.65;;;11.68;;
37459;SDS011;23318;50.966;5.284;2023-03-01T10:47:47;21.38;;;12.10;;
37459;SDS011;23318;50.966;5.284;2023-03-01T10:50:36;19.17;;;12.15;;
37459;SDS011;23318;50.966;5.284;2023-03-01T10:53:04;18.58;;;11.98;;
37459;SDS011;23318;50.966;5.284;2023-03-01T10:55:41;16.98;;;10.88;;
37459;SDS011;23318;50.966;5.284;2023-03-01T11:03:14;20.48;;;11.95;;
37459;SDS011;23318;50.966;5.284;2023-03-01T11:05:50;27.67;;;12.27;;
37459;SDS011;23318;50.966;5.284;2023-03-01T11:13:53;16.88;;;11.00;;
37459;SDS011;23318;50.966;5.284;2023-03-01T11:16:33;16.95;;;11.02;;
37459;SDS011;23318;50.966;5.284;2023-03-01T11:21:50;17.35;;;11.88;;
37459;SDS011;23318;50.966;5.284;2023-03-01T11:24:47;18.77;;;11.68;;
37459;SDS011;23318;50.966;5.284;2023-03-01T11:32:54;16.77;;;12.13;;
37459;SDS011;23318;50.966;5.284;2023-03-01T11:35:42;19.67;;;11.52;;
37459;SDS011;23318;50.966;5.284;2023-03-01T11:38:25;17.83;;;12.35;;
37459;SDS011;23318;50.966;5.284;2023-03-01T11:49:12;20.90;;;13.77;;
37459;SDS011;23318;50.966;5.284;2023-03-01T11:57:29;26.10;;;16.08;;
37459;SDS011;23318;50.966;5.284;2023-03-01T12:03:23;24.08;;;14.65;;
37459;SDS011;23318;50.966;5.284;2023-03-01T12:08:51;23.50;;;12.07;;
37459;SDS011;23318;50.966;5.284;2023-03-01T12:11:43;18.27;;;11.38;;
37459;SDS011;23318;50.966;5.284;2023-03-01T12:33:37;13.73;;;9.88;;
37459;SDS011;23318;50.966;5.284;2023-03-01T12:50:53;15.93;;;10.48;;
37459;SDS011;23318;50.966;5.284;2023-03-01T12:53:23;14.25;;;9.25;;
37459;SDS011;23318;50.966;5.284;2023-03-01T12:56:05;14.75;;;9.55;;
37459;SDS011;23318;50.966;5.284;2023-03-01T13:06:36;15.18;;;9.45;;
37459;SDS011;23318;50.966;5.284;2023-03-01T13:11:55;16.13;;;9.32;;
37459;SDS011;23318;50.966;5.284;2023-03-01T13:16:48;14.48;;;8.90;;
37459;SDS011;23318;50.966;5.284;2023-03-01T13:19:16;13.98;;;9.13;;
37459;SDS011;23318;50.966;5.284;2023-03-01T13:21:50;15.77;;;8.90;;
37459;SDS011;23318;50.966;5.284;2023-03-01T13:32:52;18.17;;;9.52;;
37459;SDS011;23318;50.966;5.284;2023-03-01T13:37:42;14.27;;;9.25;;
37459;SDS011;23318;50.966;5.284;2023-03-01T13:42:44;14.80;;;9.20;;
37459;SDS011;23318;50.966;5.284;2023-03-01T13:47:46;12.63;;;8.80;;
37459;SDS011;23318;50.966;5.284;2023-03-01T13:50:24;14.85;;;9.68;;
37459;SDS011;23318;50.966;5.284;2023-03-01T13:52:55;14.52;;;8.98;;
37459;SDS011;23318;50.966;5.284;2023-03-01T13:58:24;15.65;;;9.50;;
37459;SDS011;23318;50.966;5.284;2023-03-01T14:00:55;12.98;;;8.85;;
37459;SDS011;23318;50.966;5.284;2023-03-01T14:03:21;12.70;;;9.38;;
37459;SDS011;23318;50.966;5.284;2023-03-01T14:05:57;12.27;;;9.60;;
37459;SDS011;23318;50.966;5.284;2023-03-01T14:08:24;11.55;;;8.80;;
37459;SDS011;23318;50.966;5.284;2023-03-01T14:16:42;18.30;;;9.23;;
37459;SDS011;23318;50.966;5.284;2023-03-01T14:19:20;19.00;;;9.40;;
37459;SDS011;23318;50.966;5.284;2023-03-01T14:24:45;13.95;;;8.85;;
37459;SDS011;23318;50.966;5.284;2023-03-01T14:27:14;11.27;;;8.65;;
37459;SDS011;23318;50.966;5.284;2023-03-01T14:29:40;19.30;;;8.57;;
37459;SDS011;23318;50.966;5.284;2023-03-01T14:32:10;11.82;;;8.20;;
37459;SDS011;23318;50.966;5.284;2023-03-01T14:34:49;13.85;;;8.68;;
37459;SDS011;23318;50.966;5.284;2023-03-01T14:37:20;10.77;;;7.85;;
37459;SDS011;23318;50.966;5.284;2023-03-01T14:39:49;14.70;;;8.90;;
37459;SDS011;23318;50.966;5.284;2023-03-01T14:42:16;10.77;;;7.60;;
37459;SDS011;23318;50.966;5.284;2023-03-01T14:44:44;12.25;;;7.78;;
37459;SDS011;23318;50.966;5.284;2023-03-01T14:47:14;13.32;;;8.75;;
37459;SDS011;23318;50.966;5.284;2023-03-01T14:49:44;14.43;;;8.07;;
37459;SDS011;23318;50.966;5.284;2023-03-01T14:52:21;14.50;;;8.15;;
37459;SDS011;23318;50.966;5.284;2023-03-01T14:54:51;13.70;;;7.45;;
37459;SDS011;23318;50.966;5.284;2023-03-01T14:57:19;11.23;;;7.90;;
37459;SDS011;23318;50.966;5.284;2023-03-01T14:59:47;12.73;;;7.72;;
37459;SDS011;23318;50.966;5.284;2023-03-01T15:02:18;15.15;;;8.05;;
37459;SDS011;23318;50.966;5.284;2023-03-01T15:04:52;14.35;;;7.55;;
37459;SDS011;23318;50.966;5.284;2023-03-01T15:07:26;17.30;;;10.88;;
37459;SDS011;23318;50.966;5.284;2023-03-01T15:09:56;11.65;;;7.18;;
37459;SDS011;23318;50.966;5.284;2023-03-01T15:12:36;13.82;;;6.50;;
37459;SDS011;23318;50.966;5.284;2023-03-01T15:17:57;12.60;;;6.68;;
37459;SDS011;23318;50.966;5.284;2023-03-01T15:20:28;7.82;;;6.38;;
37459;SDS011;23318;50.966;5.284;2023-03-01T15:23:00;9.65;;;6.68;;
37459;SDS011;23318;50.966;5.284;2023-03-01T15:25:27;9.32;;;6.38;;
37459;SDS011;23318;50.966;5.284;2023-03-01T15:27:55;9.45;;;6.60;;
37459;SDS011;23318;50.966;5.284;2023-03-01T15:30:25;11.73;;;6.65;;
37459;SDS011;23318;50.966;5.284;2023-03-01T15:35:48;11.63;;;6.63;;
37459;SDS011;23318;50.966;5.284;2023-03-01T15:38:35;13.00;;;5.40;;
37459;SDS011;23318;50.966;5.284;2023-03-01T15:41:25;9.25;;;6.50;;
37459;SDS011;23318;50.966;5.284;2023-03-01T15:43:51;12.10;;;6.63;;
37459;SDS011;23318;50.966;5.284;2023-03-01T15:48:58;7.28;;;5.75;;
37459;SDS011;23318;50.966;5.284;2023-03-01T15:51:30;9.20;;;6.18;;
37459;SDS011;23318;50.966;5.284;2023-03-01T15:54:04;8.55;;;6.13;;
37459;SDS011;23318;50.966;5.284;2023-03-01T15:56:43;10.75;;;5.88;;
37459;SDS011;23318;50.966;5.284;2023-03-01T15:59:09;12.18;;;6.40;;
37459;SDS011;23318;50.966;5.284;2023-03-01T16:01:38;9.40;;;6.13;;
37459;SDS011;23318;50.966;5.284;2023-03-01T16:04:04;8.93;;;5.88;;
37459;SDS011;23318;50.966;5.284;2023-03-01T16:06:30;9.68;;;6.30;;
37459;SDS011;23318;50.966;5.284;2023-03-01T16:08:55;9.30;;;6.25;;
37459;SDS011;23318;50.966;5.284;2023-03-01T16:11:21;8.90;;;5.80;;
37459;SDS011;23318;50.966;5.284;2023-03-01T16:13:47;10.25;;;6.20;;
37459;SDS011;23318;50.966;5.284;2023-03-01T16:16:15;11.70;;;6.32;;
37459;SDS011;23318;50.966;5.284;2023-03-01T16:18:45;7.70;;;6.03;;
37459;SDS011;23318;50.966;5.284;2023-03-01T16:21:16;12.10;;;6.28;;
37459;SDS011;23318;50.966;5.284;2023-03-01T16:23:45;10.18;;;5.72;;
37459;SDS011;23318;50.966;5.284;2023-03-01T16:26:12;10.75;;;5.75;;
37459;SDS011;23318;50.966;5.284;2023-03-01T16:28:38;13.60;;;6.28;;
37459;SDS011;23318;50.966;5.284;2023-03-01T16:31:05;10.13;;;5.85;;
37459;SDS011;23318;50.966;5.284;2023-03-01T16:33:31;8.98;;;5.93;;
37459;SDS011;23318;50.966;5.284;2023-03-01T16:35:57;8.73;;;5.90;;
37459;SDS011;23318;50.966;5.284;2023-03-01T16:38:24;11.60;;;6.13;;
37459;SDS011;23318;50.966;5.284;2023-03-01T16:40:51;11.27;;;6.80;;
37459;SDS011;23318;50.966;5.284;2023-03-01T16:43:17;11.23;;;6.20;;
37459;SDS011;23318;50.966;5.284;2023-03-01T16:45:43;14.90;;;8.73;;
37459;SDS011;23318;50.966;5.284;2023-03-01T16:48:10;12.88;;;6.43;;
37459;SDS011;23318;50.966;5.284;2023-03-01T16:50:37;18.25;;;10.80;;
37459;SDS011;23318;50.966;5.284;2023-03-01T16:53:02;8.52;;;6.22;;
37459;SDS011;23318;50.966;5.284;2023-03-01T16:55:28;9.93;;;6.25;;
37459;SDS011;23318;50.966;5.284;2023-03-01T16:57:54;10.40;;;6.22;;
37459;SDS011;23318;50.966;5.284;2023-03-01T17:00:20;11.55;;;7.07;;
37459;SDS011;23318;50.966;5.284;2023-03-01T17:02:45;10.43;;;7.20;;
37459;SDS011;23318;50.966;5.284;2023-03-01T17:05:11;14.27;;;8.57;;
37459;SDS011;23318;50.966;5.284;2023-03-01T17:07:37;15.15;;;8.35;;
37459;SDS011;23318;50.966;5.284;2023-03-01T17:10:04;18.92;;;11.38;;